Time;durP1;ratioP1;P1;durP2;ratioP2;P2;SDS_P1;SDS_P2;PMS_P1;PMS_P2;Temp;Humidity;BMP_temperature;BMP_pressure;BME280_temperature;BME280_humidity;BME280_pressure;Samples;Min_cycle;Max_cycle;Signal;HPM_P1;HPM_P2
2022/03/25 07:26:33;;;;;;;28.60;14.65;;;;;;;4.00;81.65;100021.84;5089554;27;20367;-83
2022/03/25 07:29:00;;;;;;;27.15;13.88;;;;;;;4.25;80.58;100036.88;5083992;28;20359;-82
2022/03/25 07:31:28;;;;;;;30.17;14.63;;;;;;;4.53;79.88;100042.72;5086361;28;20495;-82
2022/03/25 07:33:54;;;;;;;33.03;15.52;;;;;;;4.58;80.28;100040.53;5082070;28;20056;-82
2022/03/25 07:36:21;;;;;;;35.03;16.00;;;;;;;4.79;79.79;100036.06;5087913;28;20056;-82
2022/03/25 07:38:48;;;;;;;28.90;15.10;;;;;;;5.05;78.62;100037.59;5080123;28;20050;-83
2022/03/25 07:41:14;;;;;;;29.08;15.32;;;;;;;5.14;75.98;100032.28;5088206;28;20060;-82
2022/03/25 07:43:42;;;;;;;27.75;15.07;;;;;;;5.21;73.97;100029.06;5085939;28;20050;-82
2022/03/25 07:46:09;;;;;;;28.10;13.93;;;;;;;5.27;71.17;100050.97;5087991;28;20044;-83
2022/03/25 07:48:36;;;;;;;29.85;13.98;;;;;;;5.45;71.18;100036.91;5080943;28;20056;-82
2022/03/25 07:51:02;;;;;;;29.48;13.98;;;;;;;5.49;71.48;100043.75;5086088;28;20040;-82
2022/03/25 07:53:29;;;;;;;26.90;14.45;;;;;;;5.73;72.09;100039.94;5080692;28;20051;-82
2022/03/25 07:55:56;;;;;;;28.92;13.93;;;;;;;5.80;69.92;100046.53;5084634;28;20047;-82
2022/03/25 07:58:23;;;;;;;28.63;14.50;;;;;;;5.73;69.21;100048.03;5087234;28;20419;-84
2022/03/25 08:00:52;;;;;;;30.08;15.43;;;;;;;5.83;68.10;100041.72;5085615;28;20048;-83
2022/03/25 08:03:20;;;;;;;28.33;14.18;;;;;;;5.95;68.66;100041.66;5086240;28;20055;-82
2022/03/25 08:05:48;;;;;;;31.50;14.00;;;;;;;6.20;67.58;100045.78;5087333;28;20044;-83
2022/03/25 08:08:15;;;;;;;32.67;14.73;;;;;;;6.29;66.68;100046.81;5087317;28;20056;-83
2022/03/25 08:10:42;;;;;;;29.92;14.57;;;;;;;6.35;65.73;100049.84;5087530;28;20110;-83
2022/03/25 08:13:10;;;;;;;28.73;14.43;;;;;;;6.28;64.47;100036.97;5086577;28;20135;-83
2022/03/25 08:15:36;;;;;;;26.85;14.95;;;;;;;6.42;65.25;100049.28;5087480;28;20114;-83
2022/03/25 08:18:06;;;;;;;26.67;14.45;;;;;;;6.58;65.54;100052.34;5086867;28;20075;-83
2022/03/25 08:20:35;;;;;;;29.35;15.15;;;;;;;6.69;64.40;100065.72;5085354;28;20060;-83
2022/03/25 08:23:03;;;;;;;32.10;15.55;;;;;;;6.76;65.34;100059.75;5085278;28;20491;-83
2022/03/25 08:28:15;;;;;;;33.70;15.00;;;;;;;6.93;65.09;100037.47;5084891;28;20125;-82
2022/03/25 08:30:42;;;;;;;27.77;14.15;;;;;;;7.04;63.58;100058.13;5068682;28;20060;-82
2022/03/25 08:33:11;;;;;;;29.35;15.30;;;;;;;7.16;64.96;100050.72;5081108;28;20059;-83
2022/03/25 08:35:39;;;;;;;28.48;15.45;;;;;;;7.26;62.30;100043.47;5080333;28;20053;-83
2022/03/25 08:38:07;;;;;;;42.72;16.70;;;;;;;7.39;63.41;100048.59;5063283;28;20048;-83
2022/03/25 08:40:35;;;;;;;30.30;16.15;;;;;;;7.61;62.50;100056.41;5053597;28;20072;-83
2022/03/25 08:43:02;;;;;;;32.40;15.30;;;;;;;7.81;61.63;100061.78;5065731;28;20047;-83
2022/03/25 08:45:29;;;;;;;31.92;15.10;;;;;;;7.82;62.07;100033.72;5073286;28;20045;-83
2022/03/25 08:47:56;;;;;;;33.55;15.07;;;;;;;7.91;61.37;100035.56;5062015;28;20049;-83
2022/03/25 08:50:24;;;;;;;34.97;16.27;;;;;;;8.15;59.74;100048.59;5070998;28;20464;-83
2022/03/25 08:52:52;;;;;;;29.30;16.33;;;;;;;8.17;59.37;100045.75;5071828;28;20123;-83
2022/03/25 08:55:20;;;;;;;30.20;15.55;;;;;;;8.07;59.55;100034.09;5071909;28;20036;-83
2022/03/25 08:57:49;;;;;;;32.28;16.27;;;;;;;8.26;59.05;100038.59;5064886;28;20067;-83
2022/03/25 09:00:18;;;;;;;33.47;15.07;;;;;;;8.26;58.11;100036.72;5066995;28;20067;-83
2022/03/25 09:02:46;;;;;;;31.75;15.98;;;;;;;8.48;59.09;100043.66;5072536;28;20399;-83
2022/03/25 09:05:14;;;;;;;36.30;17.05;;;;;;;8.61;57.83;100045.16;5056263;28;20045;-83
2022/03/25 09:07:43;;;;;;;35.00;16.40;;;;;;;8.55;57.68;100032.22;5066683;28;20469;-83
2022/03/25 09:10:11;;;;;;;32.92;16.45;;;;;;;8.66;57.43;100046.41;5057899;28;20450;-83
2022/03/25 09:12:38;;;;;;;30.10;15.07;;;;;;;8.54;57.33;100022.41;5059979;28;20403;-83
2022/03/25 09:15:07;;;;;;;31.55;15.68;;;;;;;8.82;57.84;100025.91;5072567;28;20053;-83
2022/03/25 09:17:33;;;;;;;31.23;16.10;;;;;;;8.96;57.28;100041.69;5058975;28;20481;-83
2022/03/25 09:20:00;;;;;;;33.22;16.35;;;;;;;8.90;56.39;100028.75;5052961;28;20055;-83
2022/03/25 09:22:27;;;;;;;33.67;16.67;;;;;;;8.97;56.62;100034.38;5064995;28;20067;-83
2022/03/25 09:24:55;;;;;;;35.47;16.27;;;;;;;9.10;57.73;100039.44;5072643;28;20076;-83
2022/03/25 09:27:21;;;;;;;35.75;16.35;;;;;;;9.02;56.17;100024.78;5064004;28;20493;-83
2022/03/25 09:29:48;;;;;;;31.40;15.68;;;;;;;9.24;55.69;100046.19;5065575;28;20080;-83
2022/03/25 09:32:15;;;;;;;32.65;16.35;;;;;;;9.47;55.56;100039.28;5070068;28;20068;-82
2022/03/25 09:37:26;;;;;;;40.47;16.92;;;;;;;9.79;54.47;100026.13;5066850;28;20147;-83
2022/03/25 09:39:52;;;;;;;35.75;17.77;;;;;;;9.91;53.64;100033.84;5052951;28;20052;-83
2022/03/25 09:42:21;;;;;;;41.22;17.20;;;;;;;9.99;53.67;100043.06;5061389;28;20119;-83
2022/03/25 09:44:48;;;;;;;35.65;17.10;;;;;;;10.16;54.07;100044.03;5072244;28;20513;-83
2022/03/25 09:47:17;;;;;;;35.90;17.27;;;;;;;10.11;53.63;100020.06;5056042;28;20060;-83
2022/03/25 09:49:45;;;;;;;34.35;16.55;;;;;;;10.23;52.97;100024.19;5062596;28;20056;-84
2022/03/25 09:52:12;;;;;;;40.03;16.65;;;;;;;10.33;53.08;100012.34;5059202;28;20036;-84
2022/03/25 09:54:38;;;;;;;45.88;18.63;;;;;;;10.58;52.59;100027.81;5072139;28;20063;-82
2022/03/25 09:57:05;;;;;;;39.75;17.40;;;;;;;10.65;52.27;100024.44;5064557;28;20044;-82
2022/03/25 09:59:33;;;;;;;46.65;18.63;;;;;;;10.72;52.30;100023.59;5052000;28;20055;-82
2022/03/25 10:02:00;;;;;;;38.30;18.10;;;;;;;10.70;52.63;100005.72;5053295;28;20396;-82
2022/03/25 10:04:36;;;;;;;41.20;18.00;;;;;;;10.88;52.53;100024.66;5065810;28;20497;-82
2022/03/25 10:07:14;;;;;;;35.90;17.50;;;;;;;11.00;52.84;100014.31;5065337;28;20041;-82
2022/03/25 10:09:41;;;;;;;37.03;17.50;;;;;;;11.16;52.97;100012.47;5052308;28;20055;-82
2022/03/25 10:12:20;;;;;;;37.22;16.70;;;;;;;11.26;51.67;100009.59;5056414;28;20131;-82
2022/03/25 10:14:50;;;;;;;39.85;18.23;;;;;;;11.41;50.58;100009.78;5072035;28;20052;-82
2022/03/25 10:17:17;;;;;;;;;;;;;;;11.63;50.11;100018.28;5064763;28;20041;-82
2022/03/25 10:19:51;;;;;;;35.25;17.75;;;;;;;11.74;50.77;100017.91;5067945;28;20363;-82
2022/03/25 10:22:18;;;;;;;38.70;17.77;;;;;;;11.71;49.49;100018.25;5070223;28;20052;-82
2022/03/25 10:24:47;;;;;;;38.33;17.88;;;;;;;11.81;49.49;100018.09;5071454;28;20502;-82
2022/03/25 10:27:38;;;;;;;37.60;18.60;;;;;;;11.89;49.67;100014.50;5068434;28;20040;-81
2022/03/25 10:30:08;;;;;;;37.20;16.50;;;;;;;11.85;49.80;99993.06;5051158;28;20063;-82
2022/03/25 10:32:40;;;;;;;37.15;18.42;;;;;;;11.89;49.01;100006.34;5055510;28;20053;-83
2022/03/25 10:35:08;;;;;;;33.80;17.23;;;;;;;11.99;50.08;100010.59;5064069;28;20506;-83
2022/03/25 10:37:36;;;;;;;35.97;18.23;;;;;;;12.10;49.43;100000.34;5066878;28;20131;-83
2022/03/25 10:40:05;;;;;;;34.60;17.85;;;;;;;12.33;49.10;100005.91;5071237;28;20523;-83
2022/03/25 10:42:33;;;;;;;43.80;18.05;;;;;;;12.48;48.42;100001.44;5065107;28;20064;-83
2022/03/25 10:45:00;;;;;;;43.92;19.38;;;;;;;12.37;47.20;99983.59;5051504;28;20056;-83
2022/03/25 10:47:29;;;;;;;40.90;18.08;;;;;;;12.54;47.70;99976.19;5056629;28;20147;-83
2022/03/25 10:50:13;;;;;;;34.00;17.80;;;;;;;12.70;47.74;99996.22;5071263;28;20060;-83
2022/03/25 10:52:40;;;;;;;43.38;19.40;;;;;;;12.97;47.16;99997.59;5067765;28;20183;-83
2022/03/25 10:55:19;;;;;;;34.70;18.80;;;;;;;13.14;47.61;99989.28;5071020;28;20056;-82
2022/03/25 10:57:50;;;;;;;35.20;17.80;;;;;;;13.21;47.28;99971.16;5061321;28;20127;-83
2022/03/25 11:00:17;;;;;;;43.55;18.08;;;;;;;13.39;46.21;99993.56;5050528;28;20087;-83
2022/03/25 11:02:45;;;;;;;40.25;19.27;;;;;;;13.35;45.65;99986.75;5054331;28;20045;-82
2022/03/25 11:05:13;;;;;;;36.22;19.02;;;;;;;13.33;45.45;99979.78;5070604;28;20051;-82
2022/03/25 11:07:44;;;;;;;35.45;18.83;;;;;;;13.42;46.36;99973.25;5060663;28;20048;-82
2022/03/25 11:10:12;;;;;;;36.25;19.15;;;;;;;13.60;45.05;99992.03;5062571;28;20130;-82
2022/03/25 11:12:42;;;;;;;38.15;20.88;;;;;;;13.63;43.66;99965.19;5069253;28;20052;-82
2022/03/25 11:15:10;;;;;;;;;;;;;;;13.88;43.33;99981.34;5071368;28;20052;-82
2022/03/25 11:17:37;;;;;;;41.50;20.83;;;;;;;13.96;43.52;99958.53;5067930;28;19920;-82
2022/03/25 11:20:08;;;;;;;31.50;17.02;;;;;;;14.32;42.90;99980.50;5070707;28;20059;-82
2022/03/25 11:22:38;;;;;;;40.03;18.95;;;;;;;14.37;42.58;99960.78;5068391;28;20547;-82
2022/03/25 11:25:05;;;;;;;;;;;;;;;14.65;41.11;99971.91;5050945;28;20053;-82
2022/03/25 11:27:35;;;;;;;37.47;18.38;;;;;;;14.75;41.34;99979.81;5063072;28;19924;-82
2022/03/25 11:30:09;;;;;;;32.97;19.02;;;;;;;14.71;40.41;99962.09;5070302;28;20048;-82
2022/03/25 11:32:48;;;;;;;34.15;17.27;;;;;;;15.01;40.16;99981.19;5069161;28;20122;-82
2022/03/25 11:35:21;;;;;;;35.73;19.60;;;;;;;15.00;39.96;99963.88;5068281;28;20127;-82
2022/03/25 11:37:47;;;;;;;36.88;19.58;;;;;;;15.15;39.10;99973.94;5059912;28;20087;-82
2022/03/25 11:40:27;;;;;;;39.35;20.45;;;;;;;15.26;39.17;99959.72;5070060;28;20055;-82
2022/03/25 11:42:55;;;;;;;36.45;19.42;;;;;;;15.54;39.12;99958.94;5052916;28;20500;-82
2022/03/25 11:45:35;;;;;;;40.50;19.92;;;;;;;15.89;38.22;99948.03;5069366;28;20056;-82
2022/03/25 11:48:19;;;;;;;;;;;;;;;15.87;37.43;99948.25;5051291;28;20052;-83
2022/03/25 11:50:47;;;;;;;38.35;20.45;;;;;;;15.87;37.21;99940.03;5053253;28;20418;-83
2022/03/25 11:53:32;;;;;;;35.55;17.85;;;;;;;15.92;37.73;99921.06;5057687;28;20584;-83
2022/03/25 11:56:00;;;;;;;40.92;20.60;;;;;;;16.22;35.93;99931.78;5063527;28;20484;-83
2022/03/25 11:58:28;;;;;;;46.42;20.45;;;;;;;16.19;37.29;99926.69;5070085;28;20051;-83
2022/03/25 12:00:59;;;;;;;41.78;23.05;;;;;;;16.28;36.27;99935.63;5070694;28;20056;-83
2022/03/25 12:03:41;;;;;;;40.97;22.20;;;;;;;16.37;36.05;99911.59;5054658;28;20610;-83
2022/03/25 12:06:10;;;;;;;42.83;23.13;;;;;;;16.51;35.45;99918.81;5070614;28;20114;-83
2022/03/25 12:08:38;;;;;;;45.47;21.92;;;;;;;16.48;36.03;99908.25;5062822;28;20057;-83
2022/03/25 12:11:07;;;;;;;39.33;22.08;;;;;;;16.72;35.29;99927.97;5070206;28;20104;-83
2022/03/25 12:14:08;;;;;;;37.58;22.33;;;;;;;16.95;35.35;99931.25;5072483;28;20127;-84
2022/03/25 12:16:54;;;;;;;40.58;21.67;;;;;;;16.91;34.86;99921.72;5074012;28;20048;-83
2022/03/25 12:19:59;;;;;;;37.30;20.25;;;;;;;16.97;35.00;99917.31;5065562;28;20053;-83
2022/03/25 12:22:33;;;;;;;47.97;21.08;;;;;;;16.77;35.00;99901.59;5067519;28;20553;-83
2022/03/25 12:25:10;;;;;;;44.85;21.95;;;;;;;16.94;33.05;99896.59;5072996;28;20396;-83
2022/03/25 12:27:38;;;;;;;48.08;23.75;;;;;;;17.19;34.29;99898.72;5064540;28;20404;-83
2022/03/25 12:30:06;;;;;;;38.92;21.00;;;;;;;17.30;33.24;99908.25;5065885;28;20053;-83
2022/03/25 12:32:36;;;;;;;39.78;21.67;;;;;;;17.53;34.25;99896.81;5068702;28;20051;-82
2022/03/25 12:35:05;;;;;;;42.28;23.70;;;;;;;17.62;33.30;99891.97;5072741;28;20040;-83
2022/03/25 12:37:38;;;;;;;44.57;23.87;;;;;;;17.55;33.56;99874.63;5073515;28;20135;-82
2022/03/25 12:40:12;;;;;;;41.17;22.52;;;;;;;17.96;33.42;99895.50;5063120;28;20310;-82
2022/03/25 12:42:39;;;;;;;43.78;23.00;;;;;;;17.72;31.08;99886.00;5071638;28;20048;-82
2022/03/25 12:45:07;;;;;;;49.25;23.55;;;;;;;17.93;31.24;99890.44;5053954;28;20053;-82
2022/03/25 12:47:34;;;;;;;45.40;23.50;;;;;;;17.85;33.31;99856.59;5072221;28;20048;-82
2022/03/25 12:50:03;;;;;;;39.17;21.67;;;;;;;17.95;30.98;99869.06;5074181;28;20068;-82
2022/03/25 12:52:30;;;;;;;41.60;23.60;;;;;;;18.07;31.15;99880.25;5088754;28;20052;-83
2022/03/25 12:55:08;;;;;;;36.20;22.25;;;;;;;18.09;30.60;99889.97;5093692;28;20044;-83
2022/03/25 12:57:46;;;;;;;44.42;23.58;;;;;;;18.16;30.25;99870.69;5088684;28;20048;-82
2022/03/25 13:00:14;;;;;;;41.78;23.02;;;;;;;18.27;30.93;99881.00;5062291;28;20084;-82
2022/03/25 13:02:42;;;;;;;43.13;23.60;;;;;;;18.27;31.00;99856.25;5094844;28;20080;-82
2022/03/25 13:05:13;;;;;;;44.03;23.83;;;;;;;18.30;29.86;99871.47;5092444;28;20016;-82
2022/03/25 13:07:41;;;;;;;41.05;24.23;;;;;;;18.30;29.92;99869.56;5085907;28;20048;-82
2022/03/25 13:10:10;;;;;;;40.40;22.02;;;;;;;18.37;29.99;99858.53;5073546;28;20048;-82
2022/03/25 13:12:40;;;;;;;39.13;23.48;;;;;;;18.65;29.67;99866.44;5053297;28;20139;-82
2022/03/25 13:15:09;;;;;;;45.03;23.63;;;;;;;18.65;28.96;99840.78;5057131;28;20056;-82
2022/03/25 13:17:37;;;;;;;37.90;22.43;;;;;;;18.78;28.77;99859.16;5074522;28;20110;-82
2022/03/25 13:20:08;;;;;;;39.53;20.17;;;;;;;18.78;27.91;99834.38;5060832;28;20295;-82
2022/03/25 13:22:36;;;;;;;32.97;20.30;;;;;;;18.85;28.17;99860.84;5068698;28;20194;-83
2022/03/25 13:25:04;;;;;;;36.88;20.70;;;;;;;18.71;27.53;99840.78;5073377;28;20124;-83
2022/03/25 13:27:32;;;;;;;44.58;21.95;;;;;;;18.89;27.73;99842.81;5078025;28;20056;-83
2022/03/25 13:29:59;;;;;;;36.55;20.83;;;;;;;18.96;27.43;99858.44;5073778;28;20123;-83
2022/03/25 13:32:31;;;;;;;35.75;19.15;;;;;;;18.54;27.93;99842.34;5069707;28;20051;-83
2022/03/25 13:35:09;;;;;;;36.17;18.65;;;;;;;18.78;25.70;99846.22;5073180;28;20060;-83
2022/03/25 13:37:36;;;;;;;30.80;18.00;;;;;;;18.72;25.97;99842.44;5061650;28;20453;-83
2022/03/25 13:40:04;;;;;;;29.17;17.33;;;;;;;18.84;26.47;99850.84;5075278;28;20048;-83
2022/03/25 13:42:37;;;;;;;32.20;18.02;;;;;;;19.00;25.75;99829.34;5075132;28;20135;-83
2022/03/25 13:45:11;;;;;;;32.08;17.55;;;;;;;19.18;26.08;99842.34;5073323;28;20049;-83
2022/03/25 13:47:38;;;;;;;28.92;16.85;;;;;;;19.18;25.11;99825.81;5072588;28;20048;-83
2022/03/25 13:50:16;;;;;;;27.80;16.40;;;;;;;19.19;25.09;99838.53;5057538;28;20045;-83
2022/03/25 13:52:54;;;;;;;30.08;19.10;;;;;;;19.17;24.33;99833.25;5071714;28;20044;-83
2022/03/25 13:55:30;;;;;;;29.73;17.38;;;;;;;19.02;24.76;99833.56;5071070;28;20094;-83
2022/03/25 13:57:59;;;;;;;33.10;17.98;;;;;;;18.73;24.72;99821.28;5071110;28;20060;-82
2022/03/25 14:00:38;;;;;;;31.07;17.80;;;;;;;18.71;25.05;99828.88;5071335;28;20131;-82
2022/03/25 14:03:06;;;;;;;29.02;17.50;;;;;;;18.91;25.21;99839.81;5051642;28;20111;-82
2022/03/25 14:05:34;;;;;;;33.30;17.92;;;;;;;19.01;24.22;99820.84;5052341;28;20037;-82
2022/03/25 14:08:00;;;;;;;33.28;18.00;;;;;;;19.06;24.46;99823.81;5072133;28;20059;-83
2022/03/25 14:10:28;;;;;;;28.83;18.13;;;;;;;19.01;23.63;99823.63;5069433;28;20139;-83
2022/03/25 14:13:03;;;;;;;28.77;16.63;;;;;;;18.91;23.35;99817.78;5060919;28;20060;-83
2022/03/25 14:15:31;;;;;;;29.75;17.25;;;;;;;18.93;23.72;99821.16;5071228;28;20450;-83
2022/03/25 14:17:58;;;;;;;31.83;18.05;;;;;;;19.07;23.88;99833.75;5051786;28;20048;-82
2022/03/25 14:20:30;;;;;;;37.53;18.65;;;;;;;19.02;23.90;99833.56;5053003;28;20052;-82
2022/03/25 14:22:58;;;;;;;33.60;17.13;;;;;;;18.85;23.78;99824.16;5049669;28;20061;-82
2022/03/25 14:25:30;;;;;;;28.58;17.35;;;;;;;18.93;23.35;99823.91;5065588;28;20388;-82
2022/03/25 14:27:59;;;;;;;27.73;16.67;;;;;;;18.95;24.18;99824.50;5070661;28;20044;-83
2022/03/25 14:30:28;;;;;;;31.13;17.63;;;;;;;19.16;24.25;99819.69;5070575;28;20444;-83
2022/03/25 14:32:55;;;;;;;34.73;18.83;;;;;;;19.13;23.92;99812.72;5050879;28;20061;-83
2022/03/25 14:35:23;;;;;;;34.97;18.50;;;;;;;18.97;25.28;99825.16;5050857;28;20067;-82
2022/03/25 14:37:50;;;;;;;32.05;15.73;;;;;;;18.53;26.70;99802.97;5070076;28;20041;-83
2022/03/25 14:40:17;;;;;;;35.63;19.77;;;;;;;18.74;25.09;99812.78;5062701;28;20036;-83
2022/03/25 14:42:43;;;;;;;38.67;20.13;;;;;;;18.56;26.23;99808.03;5067976;28;20404;-83
2022/03/25 14:45:10;;;;;;;34.05;17.30;;;;;;;18.33;25.09;99794.81;5071257;28;20136;-84
2022/03/25 14:47:38;;;;;;;41.42;17.33;;;;;;;18.65;25.75;99805.00;5070370;28;20090;-82
2022/03/25 14:50:08;;;;;;;32.85;16.83;;;;;;;18.78;25.43;99812.34;5072464;28;20383;-82
2022/03/25 14:52:36;;;;;;;29.05;17.52;;;;;;;18.98;25.27;99815.78;5055874;28;20059;-82
2022/03/25 14:55:04;;;;;;;32.53;18.90;;;;;;;18.98;26.21;99806.69;5051323;28;20379;-82
2022/03/25 14:57:31;;;;;;;32.90;17.70;;;;;;;18.74;25.63;99801.78;5061447;28;20152;-82
2022/03/25 14:59:57;;;;;;;33.58;17.80;;;;;;;18.58;26.21;99805.06;5069838;28;20056;-83
2022/03/25 15:02:24;;;;;;;33.63;18.38;;;;;;;18.58;25.62;99805.06;5057474;28;20053;-83
2022/03/25 15:04:54;;;;;;;35.22;17.95;;;;;;;18.75;24.90;99819.13;5051190;28;20190;-83
2022/03/25 15:07:20;;;;;;;34.58;18.50;;;;;;;18.67;25.51;99811.97;5051143;28;20052;-83
2022/03/25 15:09:47;;;;;;;33.17;16.95;;;;;;;18.61;25.05;99812.00;5051126;28;20053;-82
2022/03/25 15:12:14;;;;;;;31.80;17.88;;;;;;;18.33;25.63;99802.25;5059556;28;20050;-83
2022/03/25 15:14:41;;;;;;;29.33;17.65;;;;;;;18.21;25.78;99796.56;5067775;28;20101;-83
2022/03/25 15:17:10;;;;;;;32.85;17.83;;;;;;;18.21;26.67;99791.91;5061789;28;20049;-84
2022/03/25 15:19:37;;;;;;;33.78;18.75;;;;;;;18.31;26.93;99807.97;5050724;28;20057;-83
2022/03/25 15:22:06;;;;;;;35.15;18.52;;;;;;;18.35;26.55;99800.09;5057320;28;20041;-83
2022/03/25 15:24:32;;;;;;;35.00;18.92;;;;;;;18.16;26.37;99788.16;5070305;28;20052;-83
2022/03/25 15:26:59;;;;;;;28.85;16.65;;;;;;;18.10;26.65;99795.38;5064571;28;20045;-83
2022/03/25 15:34:59;;;;;;;30.45;17.65;;;;;;;18.41;26.49;99807.47;5069850;28;20056;-83
2022/03/25 15:37:27;;;;;;;30.45;18.45;;;;;;;18.27;26.59;99781.94;5068675;28;20055;-83
2022/03/25 15:40:03;;;;;;;37.88;19.13;;;;;;;18.12;26.44;99784.13;5069051;28;20191;-84
2022/03/25 15:42:33;;;;;;;33.00;18.05;;;;;;;17.99;26.67;99796.91;5050633;28;20055;-84
2022/03/25 15:45:00;;;;;;;31.25;17.52;;;;;;;18.03;26.66;99800.06;5053075;28;20053;-82
2022/03/25 15:47:30;;;;;;;30.40;18.48;;;;;;;17.79;26.88;99790.59;5061478;28;20428;-83
2022/03/25 15:49:56;;;;;;;33.20;17.83;;;;;;;17.96;25.63;99793.72;5067757;28;20605;-80
2022/03/25 15:52:23;;;;;;;33.65;17.50;;;;;;;17.96;26.90;99801.97;5063205;28;20075;-84
2022/03/25 15:54:51;;;;;;;32.78;17.52;;;;;;;17.67;25.82;99793.16;5074093;28;20133;-83
2022/03/25 15:57:19;;;;;;;34.50;18.83;;;;;;;17.82;26.43;99813.00;5063501;28;20070;-84
2022/03/25 15:59:49;;;;;;;33.97;17.35;;;;;;;17.76;26.85;99805.59;5057556;28;20458;-84
2022/03/25 16:02:16;;;;;;;33.78;17.77;;;;;;;17.73;26.70;99805.22;5068652;28;20051;-83
2022/03/25 16:04:44;;;;;;;31.33;17.77;;;;;;;17.47;27.44;99798.72;5058685;28;20124;-85
2022/03/25 16:07:10;;;;;;;34.83;18.73;;;;;;;17.39;28.19;99808.03;5070583;28;20067;-84
2022/03/25 16:09:38;;;;;;;34.28;19.10;;;;;;;17.13;29.06;99793.28;5065011;28;20041;-84
2022/03/25 16:12:07;;;;;;;35.20;18.67;;;;;;;17.13;28.17;99801.53;5074812;28;20123;-83
2022/03/25 16:14:33;;;;;;;35.28;19.00;;;;;;;17.15;27.96;99807.63;5075583;28;20131;-84
2022/03/25 16:17:02;;;;;;;32.17;18.00;;;;;;;17.05;29.05;99811.88;5072620;28;20060;-83
2022/03/25 16:19:28;;;;;;;33.17;17.95;;;;;;;17.02;28.42;99815.88;5060910;28;20048;-84
2022/03/25 16:21:56;;;;;;;36.00;18.13;;;;;;;16.78;27.69;99809.06;5053613;28;20048;-83
2022/03/25 16:24:22;;;;;;;34.13;18.02;;;;;;;16.66;27.62;99814.34;5055330;28;20076;-84
2022/03/25 16:26:49;;;;;;;31.35;18.83;;;;;;;16.53;27.69;99806.94;5075258;28;20398;-84
2022/03/25 16:29:18;;;;;;;35.50;18.77;;;;;;;16.39;27.74;99805.22;5075608;28;20472;-84
2022/03/25 16:31:44;;;;;;;27.92;17.45;;;;;;;16.32;28.23;99807.09;5075090;28;20052;-83
2022/03/25 16:34:12;;;;;;;30.58;18.05;;;;;;;16.25;28.60;99820.78;5067877;28;20127;-84
2022/03/25 16:36:39;;;;;;;40.85;17.50;;;;;;;16.17;28.23;99818.22;5071647;28;20504;-83
2022/03/25 16:39:06;;;;;;;29.60;17.38;;;;;;;16.15;28.39;99817.59;5067130;28;20047;-84
2022/03/25 16:41:33;;;;;;;35.65;19.17;;;;;;;16.18;28.59;99828.97;5075477;28;20079;-84
2022/03/25 16:44:00;;;;;;;30.48;16.75;;;;;;;16.17;29.05;99835.53;5054972;28;20065;-85
2022/03/25 16:46:29;;;;;;;39.13;18.95;;;;;;;16.07;28.91;99837.81;5058434;28;20397;-84
2022/03/25 16:48:55;;;;;;;37.33;17.45;;;;;;;15.96;29.48;99831.03;5068282;28;20496;-83
2022/03/25 16:51:22;;;;;;;52.28;29.85;;;;;;;15.90;29.42;99835.41;5062433;28;20052;-85
2022/03/25 16:53:49;;;;;;;43.47;21.48;;;;;;;15.82;28.96;99832.00;5071047;28;20044;-85
2022/03/25 16:56:18;;;;;;;94.20;55.00;;;;;;;15.70;29.23;99823.47;5070400;28;20098;-84
2022/03/25 16:58:45;;;;;;;38.70;22.17;;;;;;;15.66;29.29;99827.69;5058574;28;20135;-85
2022/03/25 17:01:12;;;;;;;60.38;29.88;;;;;;;15.61;29.72;99822.81;5057917;28;20620;-85
2022/03/25 17:03:47;;;;;;;48.88;27.27;;;;;;;15.54;29.60;99830.97;5071967;28;20522;-85
2022/03/25 17:06:15;;;;;;;54.83;29.77;;;;;;;15.61;29.41;99839.25;5071478;28;20052;-85
2022/03/25 17:08:42;;;;;;;120.60;61.30;;;;;;;15.54;29.89;99836.44;5052629;28;20059;-85
2022/03/25 17:11:08;;;;;;;48.80;25.33;;;;;;;15.40;30.62;99845.59;5070198;28;20045;-86
2022/03/25 17:13:35;;;;;;;34.17;20.25;;;;;;;15.32;30.55;99845.78;5055882;28;20057;-86
2022/03/25 17:16:02;;;;;;;55.78;24.63;;;;;;;15.16;30.38;99841.44;5052960;28;20057;-85
2022/03/25 17:18:28;;;;;;;51.13;28.05;;;;;;;15.09;30.72;99844.13;5068554;28;20063;-85
2022/03/25 17:20:57;;;;;;;32.42;18.00;;;;;;;15.01;30.39;99836.91;5072439;28;20055;-85
2022/03/25 17:23:24;;;;;;;33.90;19.10;;;;;;;14.96;29.99;99839.38;5072267;28;20052;-85
2022/03/25 17:25:51;;;;;;;49.10;25.00;;;;;;;15.00;30.64;99862.56;5073094;28;20480;-85
2022/03/25 17:28:17;;;;;;;34.25;18.25;;;;;;;14.87;31.15;99854.25;5072944;28;20091;-86
2022/03/25 17:30:44;;;;;;;35.70;19.17;;;;;;;14.69;31.30;99838.28;5073369;28;20044;-85
2022/03/25 17:33:11;;;;;;;49.78;22.98;;;;;;;14.67;30.95;99856.78;5055387;28;20443;-86
2022/03/25 17:35:39;;;;;;;30.83;17.48;;;;;;;14.52;30.99;99843.97;5060851;28;20057;-86
2022/03/25 17:38:09;;;;;;;41.65;20.30;;;;;;;14.62;30.85;99867.47;5070909;28;20048;-86
2022/03/25 17:40:36;;;;;;;;;;;;;;;14.62;31.46;99870.22;5071961;28;20495;-85
2022/03/25 17:43:05;;;;;;;31.27;17.23;;;;;;;14.52;31.16;99871.31;5066640;28;20015;-86
2022/03/25 17:45:32;;;;;;;38.55;19.33;;;;;;;14.43;31.58;99867.03;5072337;28;20056;-86
2022/03/25 17:47:59;;;;;;;32.80;17.73;;;;;;;14.25;31.51;99853.75;5056873;28;20056;-86
2022/03/25 17:50:26;;;;;;;34.97;17.15;;;;;;;14.21;31.41;99874.34;5052399;28;20071;-87
2022/03/25 17:52:53;;;;;;;34.28;18.02;;;;;;;14.22;31.56;99875.19;5069923;28;20075;-86
2022/03/25 17:55:23;;;;;;;34.53;17.80;;;;;;;14.12;32.49;99872.72;5071670;28;20044;-86
2022/03/25 17:57:50;;;;;;;;;;;;;;;14.00;32.69;99869.66;5073063;28;20479;-86
2022/03/25 18:00:18;;;;;;;39.92;18.55;;;;;;;13.78;32.80;99861.38;5067058;28;19921;-86
2022/03/25 18:02:47;;;;;;;32.20;17.15;;;;;;;13.80;32.41;99872.97;5062589;28;20048;-86
2022/03/25 18:05:14;;;;;;;39.53;17.97;;;;;;;13.80;33.23;99881.16;5067330;28;20037;-86
2022/03/25 18:07:41;;;;;;;33.80;18.63;;;;;;;13.70;32.75;99877.88;5068563;28;20048;-85
2022/03/25 18:10:09;;;;;;;32.92;17.27;;;;;;;13.60;32.44;99861.75;5068026;28;20130;-85
2022/03/25 18:12:37;;;;;;;37.83;16.98;;;;;;;13.72;33.09;99892.19;5051399;28;20492;-84
2022/03/25 18:15:05;;;;;;;40.40;18.50;;;;;;;13.58;32.36;99877.47;5052319;28;20059;-85
2022/03/25 18:17:31;;;;;;;40.00;20.00;;;;;;;13.73;32.02;99877.50;5055171;28;20458;-86
2022/03/25 18:19:58;;;;;;;36.45;17.83;;;;;;;13.63;33.07;99894.16;5070895;28;20051;-86
2022/03/25 18:22:27;;;;;;;34.35;17.05;;;;;;;13.50;33.56;99902.13;5068627;28;20083;-86
2022/03/25 18:24:54;;;;;;;30.95;16.67;;;;;;;13.23;33.94;99889.91;5051516;28;20550;-86
2022/03/25 18:27:21;;;;;;;42.13;16.77;;;;;;;13.25;33.84;99913.28;5051896;28;20090;-86
2022/03/25 18:29:49;;;;;;;34.58;17.80;;;;;;;13.11;33.27;99889.50;5052333;28;20195;-86
2022/03/25 18:32:16;;;;;;;31.77;17.55;;;;;;;13.15;34.00;99885.38;5069768;28;20132;-85
2022/03/25 18:34:42;;;;;;;37.35;17.05;;;;;;;13.12;34.18;99910.31;5069957;28;20514;-86
2022/03/25 18:37:09;;;;;;;36.70;18.08;;;;;;;12.95;34.41;99911.44;5071376;28;20700;-86
2022/03/25 18:39:40;;;;;;;35.83;17.45;;;;;;;12.79;34.48;99901.53;5071243;28;20510;-87
2022/03/25 18:42:07;;;;;;;37.15;17.25;;;;;;;12.88;34.25;99914.06;5059042;28;20060;-86
2022/03/25 18:44:38;;;;;;;36.33;17.63;;;;;;;13.00;33.79;99920.81;5051936;28;20057;-85
2022/03/25 18:47:12;;;;;;;34.63;17.25;;;;;;;12.86;34.32;99908.78;5067179;28;20052;-85
2022/03/25 18:49:39;;;;;;;36.45;18.73;;;;;;;12.88;33.94;99908.63;5073291;28;20261;-87
2022/03/25 18:52:11;;;;;;;32.28;16.52;;;;;;;12.92;33.71;99921.72;5063271;28;20080;-86
2022/03/25 18:54:39;;;;;;;33.33;17.27;;;;;;;12.81;34.07;99930.34;5070978;28;20400;-86
2022/03/25 18:57:07;;;;;;;40.70;17.38;;;;;;;12.82;33.47;99920.25;5072217;28;20048;-86
2022/03/25 18:59:35;;;;;;;34.95;17.83;;;;;;;12.69;34.53;99913.53;5067454;28;20045;-85
2022/03/25 19:02:02;;;;;;;34.72;15.98;;;;;;;12.61;34.27;99924.47;5062408;28;20049;-85
2022/03/25 19:04:30;;;;;;;31.48;15.90;;;;;;;12.54;34.12;99910.72;5052399;28;20049;-86